< < Back
Terminal Aerodrome Forecast


Current Version              Previous Versions:   1  2  3  4  5  6  7  8  9  

Terminal Aerodrome Forecast

581
FTUS42 KTAE 290500
TAFTLH
TAF
KTLH 290520Z 2906/3006 00000KT P6SM BKN250
     FM291600 16007KT P6SM SHRA BKN040
      TEMPO 2918/2922 3SM TSRA BKN040CB
     FM292300 VRB03KT P6SM FEW030 BKN250=



Latest METAR

753
SAUS80 KWBC 291200 RRA
MTRTLH
METAR KTLH 291153Z 10004KT 10SM FEW060 SCT250 24/21 A3003 RMK AO2 SLP167
60001 70002 T02390211 10239 20200 53010 $


USA.gov is the U.S. government's official web portal to all federal, state and local government web resources and services.